createdAt,value
2017-05-06T00:09:07.000Z,6.2
2017-05-06T00:25:43.000Z,6.2
2017-05-06T00:42:19.000Z,6.2
2017-05-06T00:58:55.000Z,6.2
2017-05-06T01:15:31.000Z,6.2
2017-05-06T01:32:07.000Z,6.6
2017-05-06T01:48:43.000Z,6.6
2017-05-06T02:05:20.000Z,6.2
2017-05-06T02:21:55.000Z,6.2
2017-05-06T02:38:31.000Z,5.9
2017-05-06T02:55:07.000Z,5.9
2017-05-06T03:11:42.000Z,5.9
2017-05-06T03:28:19.000Z,5.6
2017-05-06T03:44:54.000Z,5.6
2017-05-06T04:01:29.000Z,5.9
2017-05-06T04:18:05.000Z,6.2
2017-05-06T04:34:41.000Z,6.6
2017-05-06T04:51:18.000Z,6.9
2017-05-06T05:07:54.000Z,7.2
2017-05-06T05:24:31.000Z,7.5
2017-05-06T05:41:08.000Z,7.5
2017-05-06T05:57:45.000Z,8.2
2017-05-06T06:11:05.000Z,8.8
2017-05-06T06:24:23.000Z,9.4
2017-05-06T06:34:22.000Z,10.1
2017-05-06T06:51:02.000Z,10.1
2017-05-06T07:01:01.000Z,10.7
2017-05-06T07:17:41.000Z,11.4
2017-05-06T07:34:21.000Z,12
2017-05-06T07:51:02.000Z,12.3
2017-05-06T08:01:02.000Z,13
2017-05-06T08:17:44.000Z,12.6
2017-05-06T08:34:25.000Z,13.3
2017-05-06T08:41:05.000Z,13.9
2017-05-06T08:54:27.000Z,13.6
2017-05-06T09:11:09.000Z,14.2
2017-05-06T09:21:10.000Z,14.2
2017-05-06T09:31:12.000Z,14.9
2017-05-06T09:44:34.000Z,15.2
2017-05-06T10:01:17.000Z,15.5
2017-05-06T10:18:01.000Z,15.8
2017-05-06T10:34:45.000Z,15.8
2017-05-06T10:41:27.000Z,16.5
2017-05-06T10:51:29.000Z,17.1
2017-05-06T11:01:32.000Z,17.4
2017-05-06T11:08:15.000Z,18.1
2017-05-06T11:21:39.000Z,18.7
2017-05-06T11:25:01.000Z,19
2017-05-06T11:31:44.000Z,18.1
2017-05-06T11:35:05.000Z,18.4
2017-05-06T11:41:47.000Z,18.1
2017-05-06T11:48:29.000Z,17.4
2017-05-06T12:05:15.000Z,17.4
2017-05-06T12:11:56.000Z,17.4
2017-05-06T12:28:41.000Z,18.4
2017-05-06T12:38:46.000Z,17.8
2017-05-06T12:48:49.000Z,18.4
2017-05-06T12:52:10.000Z,18.4
2017-05-06T13:02:14.000Z,18.1
2017-05-06T13:15:38.000Z,18.4
2017-05-06T13:32:24.000Z,18.7
2017-05-06T13:35:46.000Z,18.7
2017-05-06T13:45:49.000Z,18.7
2017-05-06T14:02:35.000Z,19
2017-05-06T14:12:40.000Z,19.7
2017-05-06T14:29:26.000Z,19.4
2017-05-06T14:46:13.000Z,19
2017-05-06T14:56:17.000Z,19.7
2017-05-06T15:13:04.000Z,19.7
2017-05-06T15:29:52.000Z,19.4
2017-05-06T15:46:38.000Z,19
2017-05-06T16:03:24.000Z,19.4
2017-05-06T16:20:11.000Z,19.7
2017-05-06T16:36:58.000Z,19.4
2017-05-06T16:43:41.000Z,18.7
2017-05-06T17:00:27.000Z,18.7
2017-05-06T17:17:14.000Z,18.7
2017-05-06T17:30:39.000Z,18.1
2017-05-06T17:54:06.000Z,16.8
2017-05-06T18:10:50.000Z,16.5
2017-05-06T18:27:34.000Z,16.2
2017-05-06T18:40:57.000Z,15.5
2017-05-06T18:57:40.000Z,15.2
2017-05-06T19:14:24.000Z,14.9
2017-05-06T19:27:46.000Z,14.2
2017-05-06T19:44:28.000Z,14.2
2017-05-06T20:01:10.000Z,13.9
2017-05-06T20:17:51.000Z,13.6
2017-05-06T20:34:34.000Z,13.3
2017-05-06T20:51:15.000Z,13
2017-05-06T21:07:56.000Z,12.6
2017-05-06T21:24:37.000Z,12.6
2017-05-06T21:41:17.000Z,12.3
2017-05-06T21:57:59.000Z,12
2017-05-06T22:14:39.000Z,11.7
2017-05-06T22:31:19.000Z,11.7
2017-05-06T22:47:59.000Z,11.4
2017-05-06T23:04:39.000Z,11
2017-05-06T23:21:19.000Z,11
2017-05-06T23:37:59.000Z,10.7
2017-05-06T23:54:38.000Z,10.4
